Time;durP1;ratioP1;P1;durP2;ratioP2;P2;SDS_P1;SDS_P2;PMS_P1;PMS_P2;Temp;Humidity;BMP_temperature;BMP_pressure;BME280_temperature;BME280_humidity;BME280_pressure;Samples;Min_cycle;Max_cycle;Signal;HPM_P1;HPM_P2
2023/06/28 00:01:09;;;;;;;;;4.75;4.75;;;;;21.19;48.75;101140.47;5060069;28;45444;-71
2023/06/28 00:03:35;;;;;;;;;4.25;4.25;;;;;21.16;48.59;101138.88;5057520;28;45297;-73
2023/06/28 00:06:00;;;;;;;;;5.00;5.00;;;;;21.11;48.69;101125.00;5057181;28;45452;-70
2023/06/28 00:08:25;;;;;;;;;3.00;3.00;;;;;21.11;48.77;101127.66;5056091;28;45410;-70
2023/06/28 00:10:51;;;;;;;;;5.75;5.75;;;;;21.11;48.66;101133.03;5055414;28;45475;-70
2023/06/28 00:13:17;;;;;;;;;5.00;4.75;;;;;21.11;49.15;101137.53;5059574;28;45418;-74
2023/06/28 00:15:42;;;;;;;;;5.50;5.50;;;;;21.08;49.03;101129.75;5060720;28;45449;-73
2023/06/28 00:18:08;;;;;;;;;7.75;7.75;;;;;21.07;48.80;101131.53;5057569;28;47184;-71
2023/06/28 00:20:36;;;;;;;;;3.75;3.75;;;;;21.04;49.23;101122.91;5059246;28;45487;-71
2023/06/28 00:23:03;;;;;;;;;4.00;4.00;;;;;21.03;48.73;101127.41;5059285;28;45221;-71
2023/06/28 00:25:28;;;;;;;;;4.00;4.00;;;;;21.03;49.05;101122.06;5059365;28;45379;-71
2023/06/28 00:27:54;;;;;;;;;4.00;4.00;;;;;21.00;49.20;101119.63;5059234;28;45458;-72
2023/06/28 00:30:19;;;;;;;;;4.75;4.75;;;;;21.02;49.48;101121.22;5041152;28;45371;-71
2023/06/28 00:32:44;;;;;;;;;3.75;3.75;;;;;20.92;49.29;101114.88;5059203;28;45459;-70
2023/06/28 00:35:10;;;;;;;;;4.00;4.00;;;;;20.93;49.42;101124.59;5058010;28;45486;-72
2023/06/28 00:37:35;;;;;;;;;4.25;4.25;;;;;20.81;49.22;101104.13;5058978;28;45829;-72
2023/06/28 00:40:02;;;;;;;;;2.00;2.00;;;;;20.81;49.35;101113.00;5059857;28;45312;-70
2023/06/28 00:42:27;;;;;;;;;2.00;2.00;;;;;20.99;49.32;101113.44;5059262;28;45438;-72
2023/06/28 00:44:53;;;;;;;;;4.00;4.00;;;;;21.07;49.43;101120.00;5041826;28;45406;-70
2023/06/28 00:47:18;;;;;;;;;4.25;4.25;;;;;21.04;49.39;101112.22;5040345;28;46186;-70
2023/06/28 00:49:44;;;;;;;;;4.75;4.75;;;;;21.15;49.68;101122.94;5040798;28;45591;-70
2023/06/28 00:52:12;;;;;;;;;3.50;3.50;;;;;21.22;48.90;101121.50;5040784;28;45532;-75
2023/06/28 00:54:39;;;;;;;;;3.00;3.00;;;;;21.25;49.03;101117.75;5058731;28;45365;-69
2023/06/28 00:57:05;;;;;;;;;3.75;3.75;;;;;21.30;49.33;101111.06;5039991;28;47892;-70
2023/06/28 00:59:31;;;;;;;;;2.50;2.50;;;;;21.22;49.57;101110.81;5058619;28;45338;-72
2023/06/28 01:01:57;;;;;;;;;4.00;4.00;;;;;21.35;49.30;101112.53;5040252;28;45554;-70
2023/06/28 01:04:22;;;;;;;;;3.50;3.50;;;;;21.42;49.11;101111.94;5058777;28;45633;-71
2023/06/28 01:06:54;;;;;;;;;5.00;5.00;;;;;21.44;48.90;101111.81;5059081;28;48211;-72
2023/06/28 01:09:21;;;;;;;;;5.00;5.00;;;;;21.47;48.68;101108.06;5040635;28;45419;-71
2023/06/28 01:11:49;;;;;;;;;6.00;6.00;;;;;21.47;48.82;101114.25;5058810;28;45253;-72
2023/06/28 01:14:18;;;;;;;;;9.25;9.25;;;;;21.50;48.50;101116.69;5059079;28;45272;-72
2023/06/28 01:16:45;;;;;;;;;9.50;8.75;;;;;21.51;48.70;101109.53;5058367;28;45383;-70
2023/06/28 01:19:13;;;;;;;;;10.00;10.00;;;;;21.48;48.80;101109.75;5040581;28;45379;-73
2023/06/28 01:21:41;;;;;;;;;3.75;3.75;;;;;21.46;48.85;101115.22;5059367;28;45371;-70
2023/06/28 01:24:10;;;;;;;;;8.00;8.00;;;;;21.43;48.45;101112.78;5040965;28;45394;-71
2023/06/28 01:26:37;;;;;;;;;10.75;9.00;;;;;21.32;48.92;101092.22;5058457;28;46096;-70
2023/06/28 01:29:05;;;;;;;;;5.00;5.00;;;;;21.36;48.70;101099.03;5060376;28;45241;-75
2023/06/28 01:31:30;;;;;;;;;5.50;5.50;;;;;21.24;49.03;101082.13;5041547;28;45236;-70
2023/06/28 01:33:56;;;;;;;;;5.00;5.00;;;;;21.26;49.15;101112.28;5041943;28;45370;-71
2023/06/28 01:36:22;;;;;;;;;7.25;7.25;;;;;21.20;49.37;101102.03;5058984;28;45310;-69
2023/06/28 01:38:48;;;;;;;;;3.75;3.75;;;;;21.19;49.10;101112.84;5058609;28;45305;-70
2023/06/28 01:41:14;;;;;;;;;4.00;4.00;;;;;21.09;49.12;101102.84;5058714;28;45346;-70
2023/06/28 01:43:41;;;;;;;;;4.75;4.75;;;;;21.03;49.49;101108.69;5058282;28;45522;-70
2023/06/28 01:46:07;;;;;;;;;4.00;4.00;;;;;21.01;49.71;101099.91;5058194;28;46164;-69
2023/06/28 01:48:32;;;;;;;;;3.25;3.25;;;;;20.94;49.79;101102.22;5061929;28;45392;-71
2023/06/28 01:50:58;;;;;;;;;4.50;4.50;;;;;20.92;49.87;101098.81;5058289;28;48228;-72
2023/06/28 01:53:23;;;;;;;;;5.25;4.75;;;;;20.75;49.63;101086.69;5058358;28;45515;-72
2023/06/28 01:55:49;;;;;;;;;4.00;4.00;;;;;20.84;49.71;101091.38;5058270;28;46033;-71
2023/06/28 01:58:14;;;;;;;;;4.00;4.00;;;;;20.73;49.86;101096.63;5058873;28;45303;-72
2023/06/28 02:00:40;;;;;;;;;4.25;4.25;;;;;20.79;50.26;101095.38;5059228;28;45297;-70
2023/06/28 02:03:05;;;;;;;;;4.50;4.50;;;;;20.38;49.91;101036.00;5058943;28;45311;-70
2023/06/28 02:05:31;;;;;;;;;3.25;3.25;;;;;20.77;49.67;101102.63;5057826;28;45382;-70
2023/06/28 02:07:56;;;;;;;;;4.00;4.00;;;;;20.65;49.85;101080.34;5056902;28;54914;-70
2023/06/28 02:10:26;;;;;;;;;4.75;4.75;;;;;20.73;50.12;101094.84;5057900;28;46767;-71
2023/06/28 02:12:51;;;;;;;;;4.50;4.50;;;;;20.71;49.65;101087.88;5058178;28;45466;-70
2023/06/28 02:15:17;;;;;;;;;4.00;4.00;;;;;20.76;49.92;101098.25;5039705;28;46909;-71
2023/06/28 02:17:42;;;;;;;;;4.75;4.75;;;;;20.74;49.94;101098.34;5058503;28;45324;-71
2023/06/28 02:20:10;;;;;;;;;6.00;6.00;;;;;20.60;50.13;101078.00;5057757;28;45424;-71
2023/06/28 02:22:35;;;;;;;;;15.75;15.75;;;;;20.65;50.04;101091.03;5057729;28;45272;-71
2023/06/28 02:25:01;;;;;;;;;6.25;5.75;;;;;20.68;49.83;101097.00;5056929;28;45253;-70
2023/06/28 02:27:26;;;;;;;;;7.00;7.00;;;;;20.55;50.09;101073.00;5057004;28;45385;-71
2023/06/28 02:29:51;;;;;;;;;6.50;6.50;;;;;20.64;50.22;101087.47;5057467;28;45243;-71
2023/06/28 02:32:17;;;;;;;;;6.25;6.25;;;;;20.66;50.00;101090.06;5057882;28;45324;-71
2023/06/28 02:34:42;;;;;;;;;6.75;6.75;;;;;20.65;49.93;101083.00;5056941;28;45236;-70
2023/06/28 02:37:08;;;;;;;;;7.25;7.25;;;;;20.53;49.85;101076.75;5039681;28;45321;-72
2023/06/28 02:39:33;;;;;;;;;8.75;7.75;;;;;20.49;50.05;101081.47;5057928;28;45384;-71
2023/06/28 02:41:58;;;;;;;;;8.25;8.25;;;;;20.51;49.95;101082.22;5057933;28;45666;-71
2023/06/28 02:44:24;;;;;;;;;6.50;6.50;;;;;20.49;50.33;101081.47;5056964;28;45475;-69
2023/06/28 02:46:52;;;;;;;;;2.00;2.00;;;;;20.51;50.52;101089.38;5038663;28;45294;-71
2023/06/28 02:49:17;;;;;;;;;7.00;7.00;;;;;20.46;50.36;101079.03;5056859;28;45383;-71
2023/06/28 02:51:43;;;;;;;;;7.25;7.25;;;;;20.52;50.48;101091.06;5056989;28;47548;-72
2023/06/28 02:54:09;;;;;;;;;8.50;8.00;;;;;20.56;50.40;101084.53;5058799;28;45440;-70
2023/06/28 02:56:34;;;;;;;;;8.00;8.00;;;;;20.57;50.05;101076.41;5057024;28;45794;-72
2023/06/28 02:58:59;;;;;;;;;8.50;8.50;;;;;20.58;49.81;101080.78;5057212;28;45334;-69
2023/06/28 03:01:25;;;;;;;;;7.25;7.25;;;;;20.60;49.72;101082.50;5056765;28;45506;-69
2023/06/28 03:03:51;;;;;;;;;7.25;7.00;;;;;20.55;49.93;101073.00;5056723;28;46682;-71
2023/06/28 03:06:17;;;;;;;;;7.00;7.00;;;;;20.62;50.02;101080.56;5057900;28;45261;-71
2023/06/28 03:08:42;;;;;;;;;7.50;7.50;;;;;20.58;49.57;101078.13;5058128;28;45263;-71
2023/06/28 03:11:08;;;;;;;;;6.75;6.75;;;;;20.61;49.76;101076.19;5058551;28;45664;-70
2023/06/28 03:13:33;;;;;;;;;6.00;6.00;;;;;20.61;50.00;101076.19;5057885;28;45328;-69
2023/06/28 03:15:59;;;;;;;;;10.00;10.00;;;;;20.65;50.20;101078.50;5058752;28;45281;-71
2023/06/28 03:18:25;;;;;;;;;9.25;9.25;;;;;20.66;49.67;101076.69;5058015;28;45309;-70
2023/06/28 03:20:50;;;;;;;;;9.25;9.25;;;;;20.75;49.71;101073.31;5043708;28;45634;-69
2023/06/28 03:23:15;;;;;;;;;10.25;10.25;;;;;20.75;49.65;101072.47;5060149;28;46302;-72
2023/06/28 03:25:41;;;;;;;;;9.25;8.75;;;;;20.71;49.35;101064.69;5057171;28;45404;-70
2023/06/28 03:28:06;;;;;;;;;9.00;9.00;;;;;20.77;49.71;101076.72;5056866;28;45347;-69
2023/06/28 03:30:31;;;;;;;;;10.50;10.50;;;;;20.71;49.19;101071.84;5057698;28;55887;-71
2023/06/28 03:32:57;;;;;;;;;12.50;12.00;;;;;20.75;49.34;101076.00;5056969;28;46279;-70
2023/06/28 03:35:22;;;;;;;;;13.00;13.00;;;;;20.77;49.88;101079.41;5056510;28;45448;-70
2023/06/28 03:37:51;;;;;;;;;13.50;12.50;;;;;20.83;49.46;101078.13;5057919;28;51728;-71
2023/06/28 03:40:16;;;;;;;;;6.75;6.75;;;;;20.78;49.59;101080.28;5058151;28;45825;-71
2023/06/28 03:42:41;;;;;;;;;7.50;7.50;;;;;20.75;49.67;101072.47;5057127;28;45299;-71
2023/06/28 03:45:08;;;;;;;;;8.00;8.00;;;;;20.77;49.17;101071.38;5038468;28;58111;-71
2023/06/28 03:47:34;;;;;;;;;7.50;7.50;;;;;20.70;49.22;101060.31;5059212;28;45265;-70
2023/06/28 03:49:59;;;;;;;;;6.50;6.50;;;;;20.75;49.03;101067.13;5058054;28;45300;-70
2023/06/28 03:52:24;;;;;;;;;4.25;4.25;;;;;20.64;48.54;101055.41;5059305;28;46203;-71
2023/06/28 03:54:50;;;;;;;;;4.75;4.75;;;;;20.66;48.41;101064.16;5041252;28;45325;-71
2023/06/28 03:57:15;;;;;;;;;4.00;4.00;;;;;20.60;49.11;101071.81;5059600;28;45575;-70
2023/06/28 03:59:40;;;;;;;;;3.75;3.75;;;;;20.57;48.93;101073.75;5059703;28;45416;-70
2023/06/28 04:02:06;;;;;;;;;3.00;3.00;;;;;20.62;48.66;101069.88;5060084;28;45334;-72
2023/06/28 04:04:33;;;;;;;;;5.00;5.00;;;;;20.63;48.88;101077.75;5060020;28;45306;-70
2023/06/28 04:07:00;;;;;;;;;3.75;3.75;;;;;20.51;49.00;101076.88;5041237;28;45531;-70
2023/06/28 04:09:25;;;;;;;;;4.00;4.00;;;;;20.38;49.46;101062.72;5059304;28;45546;-70
2023/06/28 04:11:51;;;;;;;;;4.00;4.00;;;;;20.37;49.45;101061.84;5059042;28;46221;-69
2023/06/28 04:14:16;;;;;;;;;5.50;5.50;;;;;20.60;49.29;101067.28;5058625;28;45406;-69
2023/06/28 04:16:41;;;;;;;;;5.50;5.50;;;;;20.63;48.75;101066.22;5059237;28;45899;-69
2023/06/28 04:19:07;;;;;;;;;4.50;4.50;;;;;20.58;49.49;101069.22;5058949;28;48588;-71
2023/06/28 04:21:32;;;;;;;;;5.00;5.00;;;;;20.59;49.57;101078.97;5058627;28;45190;-69
2023/06/28 04:23:58;;;;;;;;;5.75;5.75;;;;;20.62;49.29;101070.72;5058787;28;45438;-70
2023/06/28 04:26:23;;;;;;;;;4.00;4.00;;;;;20.78;48.94;101065.09;5059492;28;45323;-69
2023/06/28 04:28:49;;;;;;;;;6.50;6.50;;;;;20.86;49.28;101070.72;5059768;28;45472;-70
2023/06/28 04:31:14;;;;;;;;;4.25;4.25;;;;;20.93;48.94;101076.47;5059458;28;45314;-69
2023/06/28 04:33:39;;;;;;;;;5.25;5.25;;;;;20.97;48.62;101061.88;5058884;28;47816;-69
2023/06/28 04:36:05;;;;;;;;;5.75;5.75;;;;;20.93;48.75;101052.38;5043143;28;45261;-73
2023/06/28 04:38:33;;;;;;;;;5.75;5.75;;;;;21.03;48.15;101060.53;5051231;28;45213;-71
2023/06/28 04:40:59;;;;;;;;;5.25;5.25;;;;;20.89;48.67;101044.72;5044137;28;46455;-70
2023/06/28 04:43:24;;;;;;;;;5.00;5.00;;;;;21.10;48.19;101063.59;5059394;28;45402;-71
2023/06/28 04:45:50;;;;;;;;;5.75;5.75;;;;;21.17;48.15;101064.84;5058747;28;45357;-69
2023/06/28 04:48:15;;;;;;;;;6.75;6.75;;;;;21.26;48.19;101072.13;5060251;28;45354;-69
2023/06/28 04:50:40;;;;;;;;;5.50;5.50;;;;;21.30;47.84;101065.56;5058944;28;46008;-68
2023/06/28 04:53:06;;;;;;;;;8.50;6.00;;;;;21.35;47.88;101062.56;5058707;28;45334;-70
2023/06/28 04:55:32;;;;;;;;;7.75;7.75;;;;;21.47;47.79;101066.06;5066877;28;45376;-71
2023/06/28 04:58:07;;;;;;;;;5.75;5.75;;;;;21.52;47.79;101061.22;5046157;28;45703;-71
2023/06/28 05:00:33;;;;;;;;;5.00;5.00;;;;;21.67;47.33;101069.88;5058187;28;45336;-70
2023/06/28 05:03:02;;;;;;;;;4.00;4.00;;;;;21.77;46.41;101053.09;5040124;28;45495;-70
2023/06/28 05:05:28;;;;;;;;;4.00;4.00;;;;;21.91;46.19;101062.69;5058832;28;45425;-71
2023/06/28 05:07:54;;;;;;;;;4.75;4.75;;;;;21.85;45.73;101042.59;5058922;28;45337;-70
2023/06/28 05:10:21;;;;;;;;;1.75;1.75;;;;;21.80;44.49;101032.28;5059363;28;45378;-73
2023/06/28 05:12:48;;;;;;;;;4.00;4.00;;;;;22.01;44.06;101059.13;5059482;28;45244;-70
2023/06/28 05:15:13;;;;;;;;;0.00;0.00;;;;;21.86;44.27;101036.28;5059324;28;45336;-74
2023/06/28 05:17:39;;;;;;;;;4.50;4.50;;;;;22.09;43.71;101068.38;5058640;28;45424;-71
2023/06/28 05:20:05;;;;;;;;;3.50;3.50;;;;;22.08;43.39;101064.00;5057975;28;45761;-70
2023/06/28 05:22:30;;;;;;;;;4.00;4.00;;;;;22.07;43.39;101063.16;5040186;28;45291;-72
2023/06/28 05:24:55;;;;;;;;;5.25;5.25;;;;;22.08;43.70;101058.63;5058339;28;45357;-72
2023/06/28 05:27:21;;;;;;;;;3.25;3.25;;;;;22.10;43.90;101057.53;5058728;28;45387;-74
2023/06/28 05:29:47;;;;;;;;;3.00;3.00;;;;;21.85;43.97;101023.88;5058653;28;45415;-71
2023/06/28 05:32:15;;;;;;;;;4.00;4.00;;;;;22.13;44.30;101057.28;5059829;28;45336;-72
2023/06/28 05:34:40;;;;;;;;;4.50;4.50;;;;;21.99;44.35;101026.25;5058146;28;45339;-70
2023/06/28 05:37:06;;;;;;;;;3.00;3.00;;;;;22.26;44.47;101053.59;5058116;28;45578;-72
2023/06/28 05:39:31;;;;;;;;;3.25;3.25;;;;;22.23;44.64;101052.00;5058016;28;45680;-70
2023/06/28 05:41:57;;;;;;;;;3.75;3.75;;;;;22.22;44.73;101055.66;5057519;28;45285;-70
2023/06/28 05:44:22;;;;;;;;;4.50;4.50;;;;;22.22;45.06;101057.50;5057352;28;45252;-71
2023/06/28 05:46:48;;;;;;;;;3.75;3.75;;;;;22.30;44.56;101060.41;5039639;28;45222;-70
2023/06/28 05:49:14;;;;;;;;;4.75;4.75;;;;;22.42;44.84;101058.56;5057615;28;45542;-71
2023/06/28 05:51:42;;;;;;;;;0.75;0.75;;;;;22.60;44.75;101057.03;5058692;28;45197;-70
2023/06/28 05:54:07;;;;;;;;;5.00;5.00;;;;;22.64;44.70;101049.56;5058863;28;45385;-71
2023/06/28 05:56:32;;;;;;;;;5.25;5.25;;;;;22.74;44.59;101058.53;5058665;28;45395;-71
2023/06/28 05:58:58;;;;;;;;;3.25;3.25;;;;;;;;5059014;28;46537;-72
2023/06/28 06:01:24;;;;;;;;;4.50;4.50;;;;;22.74;44.59;101057.72;5059554;28;45367;-71
2023/06/28 06:03:49;;;;;;;;;5.50;5.50;;;;;22.69;45.12;101051.88;5057896;28;45398;-71
2023/06/28 06:06:15;;;;;;;;;4.50;4.50;;;;;22.74;45.06;101057.72;5039546;28;45339;-72
2023/06/28 06:08:40;;;;;;;;;5.50;5.50;;;;;22.78;44.94;101056.47;5057571;28;45431;-70
2023/06/28 06:11:06;;;;;;;;;5.25;5.25;;;;;22.73;45.05;101043.44;5057561;28;45337;-73
2023/06/28 06:13:34;;;;;;;;;5.00;5.00;;;;;22.78;44.85;101043.06;5057205;28;45268;-73
2023/06/28 06:15:59;;;;;;;;;5.25;5.25;;;;;22.88;45.24;101049.34;5059245;28;45193;-70
2023/06/28 06:18:25;;;;;;;;;5.00;5.00;;;;;22.94;45.14;101047.97;5057803;28;46547;-73
2023/06/28 06:20:51;;;;;;;;;4.00;4.00;;;;;23.01;45.08;101059.00;5058002;28;45231;-73
2023/06/28 06:23:19;;;;;;;;;4.75;4.75;;;;;22.96;45.30;101058.56;5057656;28;45386;-74
2023/06/28 06:25:45;;;;;;;;;5.75;5.75;;;;;22.91;45.28;101059.78;5057733;28;45456;-71
2023/06/28 06:28:11;;;;;;;;;6.00;6.00;;;;;22.88;46.09;101054.69;5058261;28;45847;-70
2023/06/28 06:30:36;;;;;;;;;4.00;4.00;;;;;22.75;45.50;101059.41;5059798;28;45284;-71
2023/06/28 06:33:02;;;;;;;;;4.25;4.25;;;;;22.76;46.05;101067.31;5058516;28;45259;-71
2023/06/28 06:35:27;;;;;;;;;6.50;6.50;;;;;22.73;46.20;101048.78;5057998;28;45328;-73
2023/06/28 06:37:53;;;;;;;;;4.50;4.50;;;;;22.90;46.15;101057.25;5057319;28;46858;-73
2023/06/28 06:40:19;;;;;;;;;4.00;4.00;;;;;22.88;45.96;101048.50;5056496;28;45281;-73
2023/06/28 06:42:45;;;;;;;;;4.75;4.50;;;;;22.90;45.94;101042.00;5057577;28;45224;-72
2023/06/28 06:45:16;;;;;;;;;5.75;5.25;;;;;23.00;46.17;101065.34;5056399;28;45442;-71
2023/06/28 06:47:43;;;;;;;;;4.00;4.00;;;;;23.13;46.29;101065.16;5034511;28;46740;-70
2023/06/28 06:50:09;;;;;;;;;7.25;7.00;;;;;23.19;45.91;101065.47;5055314;28;45366;-70
2023/06/28 06:52:34;;;;;;;;;5.75;5.75;;;;;23.14;46.30;101059.66;5035981;28;45202;-71
2023/06/28 06:55:00;;;;;;;;;3.50;3.50;;;;;23.14;46.22;101070.38;5034326;28;45477;-70
2023/06/28 06:57:25;;;;;;;;;7.25;7.00;;;;;23.01;46.30;101056.31;5056090;28;45201;-71
2023/06/28 06:59:51;;;;;;;;;5.75;5.00;;;;;22.98;46.42;101041.38;5055870;28;45583;-71
2023/06/28 07:02:16;;;;;;;;;7.25;7.00;;;;;23.26;46.21;101075.72;5055214;28;45509;-69
2023/06/28 07:04:41;;;;;;;;;4.00;4.00;;;;;23.46;46.63;101077.53;5036672;28;45248;-71
2023/06/28 07:07:07;;;;;;;;;7.50;7.50;;;;;23.57;46.17;101073.88;5054690;28;46063;-67
2023/06/28 07:09:32;;;;;;;;;6.50;6.50;;;;;23.61;46.06;101061.88;5050287;28;45508;-72
2023/06/28 07:11:57;;;;;;;;;5.00;5.00;;;;;23.72;45.98;101070.84;5051028;28;46030;-71
2023/06/28 07:14:23;;;;;;;;;5.75;5.75;;;;;23.80;45.48;101080.91;5035864;28;45917;-71
2023/06/28 07:16:48;;;;;;;;;7.00;7.00;;;;;23.89;45.73;101078.25;5042854;28;46087;-70
2023/06/28 07:19:13;;;;;;;;;7.00;7.00;;;;;23.96;45.60;101078.53;5051056;28;45674;-69
2023/06/28 07:21:39;;;;;;;;;6.00;6.00;;;;;24.07;45.66;101073.09;5050502;28;49094;-69
2023/06/28 07:24:05;;;;;;;;;8.50;8.50;;;;;24.28;45.52;101074.81;5038589;28;45467;-72
2023/06/28 07:26:30;;;;;;;;;11.25;11.25;;;;;24.46;44.85;101058.84;5054910;28;47520;-71
2023/06/28 07:28:56;;;;;;;;;8.00;8.00;;;;;24.70;44.87;101073.69;5052266;28;45453;-72
2023/06/28 07:31:21;;;;;;;;;5.75;5.75;;;;;24.77;44.27;101072.16;5053432;28;45391;-71
2023/06/28 07:33:46;;;;;;;;;9.25;9.25;;;;;24.89;44.14;101083.63;5051331;28;45541;-73
2023/06/28 07:36:12;;;;;;;;;6.50;6.50;;;;;24.88;44.32;101076.56;5050956;28;46031;-73
2023/06/28 07:38:37;;;;;;;;;6.00;6.00;;;;;24.83;44.57;101080.66;5044516;28;45493;-74
2023/06/28 07:41:03;;;;;;;;;6.25;6.25;;;;;24.86;44.02;101080.38;5055379;28;45321;-73
2023/06/28 07:43:28;;;;;;;;;8.00;8.00;;;;;24.90;44.07;101073.72;5052234;28;45532;-74
2023/06/28 07:45:58;;;;;;;;;8.50;8.00;;;;;24.92;43.60;101086.03;5054166;28;46185;-73
2023/06/28 07:48:24;;;;;;;;;7.50;7.00;;;;;24.97;43.57;101076.69;5034740;28;45464;-72
2023/06/28 07:50:49;;;;;;;;;7.50;7.50;;;;;25.01;43.86;101075.41;5037116;28;45519;-72
2023/06/28 07:53:15;;;;;;;;;9.75;9.75;;;;;25.10;43.94;101058.38;5055001;28;45559;-71
2023/06/28 07:55:40;;;;;;;;;12.25;12.25;;;;;25.19;43.41;101068.28;5036060;28;46816;-72
2023/06/28 07:58:05;;;;;;;;;8.75;8.75;;;;;25.18;43.23;101069.28;5054723;28;45468;-71
2023/06/28 08:00:32;;;;;;;;;8.00;8.00;;;;;25.09;43.43;101070.16;5054932;28;56617;-72
2023/06/28 08:02:58;;;;;;;;;8.00;8.00;;;;;25.11;43.44;101068.16;5042760;28;45157;-73
2023/06/28 08:05:24;;;;;;;;;7.75;7.75;;;;;25.19;43.44;101060.19;5053947;28;46271;-72
2023/06/28 08:07:49;;;;;;;;;6.50;6.50;;;;;25.42;43.14;101065.22;5054704;28;45269;-70
2023/06/28 08:10:15;;;;;;;;;7.00;7.00;;;;;25.60;42.46;101062.63;5055063;28;45186;-72
2023/06/28 08:12:40;;;;;;;;;6.00;6.00;;;;;25.78;42.44;101060.00;5056114;28;45321;-71
2023/06/28 08:15:06;;;;;;;;;5.50;5.50;;;;;25.81;42.67;101048.06;5053245;28;45472;-73
2023/06/28 08:17:32;;;;;;;;;7.00;7.00;;;;;25.84;42.67;101049.63;5052826;28;45405;-73
2023/06/28 08:19:57;;;;;;;;;7.75;7.75;;;;;26.00;42.08;101062.44;5054426;28;45391;-73
2023/06/28 08:22:22;;;;;;;;;6.00;6.00;;;;;25.95;41.99;101054.81;5055130;28;45362;-71
2023/06/28 08:24:48;;;;;;;;;10.25;9.50;;;;;26.10;41.50;101064.06;5036974;28;46050;-70
2023/06/28 08:27:14;;;;;;;;;19.75;19.75;;;;;26.18;41.20;101067.88;5054584;28;45375;-73
2023/06/28 08:29:40;;;;;;;;;9.25;9.25;;;;;26.21;41.31;101072.97;5054532;28;45473;-73
2023/06/28 08:32:05;;;;;;;;;7.50;7.50;;;;;26.26;41.29;101057.16;5054703;28;45295;-72
2023/06/28 08:34:31;;;;;;;;;7.25;7.25;;;;;26.42;41.16;101053.78;5054440;28;45407;-72
2023/06/28 08:36:56;;;;;;;;;7.00;7.00;;;;;26.60;41.22;101055.63;5038399;28;45224;-73
2023/06/28 08:39:21;;;;;;;;;7.00;7.00;;;;;26.84;40.85;101057.72;5058394;28;45284;-71
2023/06/28 08:41:48;;;;;;;;;7.00;7.00;;;;;26.94;40.64;101044.97;5058005;28;45632;-71
2023/06/28 08:44:14;;;;;;;;;9.00;9.00;;;;;27.04;40.33;101047.56;5057466;28;46378;-71
2023/06/28 08:46:44;;;;;;;;;9.25;9.25;;;;;26.85;40.09;101053.16;5057728;28;45595;-72
2023/06/28 08:49:11;;;;;;;;;8.75;8.75;;;;;26.93;40.32;101037.00;5057892;28;45379;-72
2023/06/28 08:51:38;;;;;;;;;9.00;9.00;;;;;26.95;40.02;101040.41;5057978;28;45420;-71
2023/06/28 08:54:03;;;;;;;;;8.50;8.50;;;;;27.00;39.85;101045.34;5057480;28;45350;-71
2023/06/28 08:56:29;;;;;;;;;7.75;7.75;;;;;26.84;39.70;101044.22;5058728;28;45245;-73
2023/06/28 08:58:56;;;;;;;;;17.00;16.50;;;;;26.83;40.64;101039.81;5039607;28;45212;-72
2023/06/28 09:01:22;;;;;;;;;10.00;10.00;;;;;27.06;39.93;101050.09;5057926;28;45483;-71
2023/06/28 09:03:48;;;;;;;;;10.50;10.00;;;;;27.14;39.70;101050.16;5038785;28;47203;-72
2023/06/28 09:06:14;;;;;;;;;9.00;9.00;;;;;27.25;39.43;101055.28;5058367;28;45427;-73
2023/06/28 09:08:42;;;;;;;;;9.00;9.00;;;;;27.47;38.78;101055.72;5058455;28;45430;-73
2023/06/28 09:11:08;;;;;;;;;11.00;11.00;;;;;27.70;38.73;101047.09;5039464;28;45663;-72
2023/06/28 09:13:34;;;;;;;;;9.50;9.50;;;;;27.93;38.97;101051.88;5060498;28;45351;-71
2023/06/28 09:16:01;;;;;;;;;11.75;11.00;;;;;27.97;38.26;101037.03;5065155;28;45198;-72
2023/06/28 09:18:26;;;;;;;;;9.00;9.00;;;;;27.96;38.02;101049.69;5060070;28;45405;-71
2023/06/28 09:20:53;;;;;;;;;10.25;10.25;;;;;27.94;37.99;101053.56;5059107;28;45477;-71
2023/06/28 09:23:26;;;;;;;;;11.25;11.25;;;;;28.06;37.80;101054.94;5057333;28;45293;-71
2023/06/28 09:25:51;;;;;;;;;11.00;11.00;;;;;28.16;37.48;101051.28;5057362;28;45403;-72
2023/06/28 09:28:19;;;;;;;;;13.75;13.75;;;;;27.83;38.04;101047.47;5057815;28;45433;-72
2023/06/28 09:30:51;;;;;;;;;12.25;12.25;;;;;27.74;37.90;101044.88;5040097;28;45485;-73
2023/06/28 09:33:18;;;;;;;;;11.50;11.50;;;;;27.76;37.89;101040.16;5057577;28;45496;-71
2023/06/28 09:35:43;;;;;;;;;11.75;11.75;;;;;28.07;37.82;101039.56;5040246;28;45629;-70
2023/06/28 09:38:09;;;;;;;;;15.50;15.50;;;;;28.09;37.10;101033.00;5057938;28;45497;-74
2023/06/28 09:40:35;;;;;;;;;10.00;10.00;;;;;28.14;37.87;101037.94;5058914;28;45371;-71
2023/06/28 09:43:01;;;;;;;;;10.75;10.75;;;;;28.22;37.50;101042.50;5057842;28;46120;-72
2023/06/28 09:45:30;;;;;;;;;12.75;12.75;;;;;28.33;36.70;101033.22;5056795;28;45177;-70
2023/06/28 09:48:00;;;;;;;;;12.75;12.75;;;;;28.28;37.19;101036.41;5038803;28;45372;-72
2023/06/28 09:50:36;;;;;;;;;12.50;12.50;;;;;28.40;37.08;101039.66;5057916;28;45568;-73
2023/06/28 09:53:02;;;;;;;;;18.25;17.00;;;;;28.38;36.67;101031.69;5057074;28;46349;-72
2023/06/28 09:55:28;;;;;;;;;16.25;16.25;;;;;28.39;37.18;101019.03;5038583;28;46045;-72
2023/06/28 09:57:55;;;;;;;;;14.75;14.75;;;;;28.33;37.05;101027.81;5057353;28;45368;-71
2023/06/28 10:00:21;;;;;;;;;17.25;17.25;;;;;28.21;36.56;100987.59;5056980;28;45351;-71
2023/06/28 10:02:48;;;;;;;;;21.25;21.00;;;;;28.62;36.35;101015.63;5056342;28;45692;-71
2023/06/28 10:05:14;;;;;;;;;22.25;22.25;;;;;28.87;36.34;101013.78;5056494;28;45339;-73
2023/06/28 10:07:42;;;;;;;;;20.25;20.25;;;;;29.09;36.68;101016.78;5057398;28;45844;-71
2023/06/28 10:10:08;;;;;;;;;16.75;16.25;;;;;29.18;36.41;100999.47;5058473;28;45611;-73
2023/06/28 10:12:36;;;;;;;;;20.75;20.75;;;;;29.29;35.71;100993.66;5058988;28;45359;-73
2023/06/28 10:15:12;;;;;;;;;16.75;15.25;;;;;29.39;35.74;100998.06;5039329;28;45397;-72
2023/06/28 10:17:38;;;;;;;;;24.75;23.50;;;;;29.49;35.27;100993.28;5057921;28;45326;-73
2023/06/28 10:20:06;;;;;;;;;22.50;22.50;;;;;29.64;35.44;101003.38;5056999;28;45336;-72
2023/06/28 10:22:32;;;;;;;;;20.50;20.50;;;;;29.73;35.31;100995.03;5056548;28;46423;-73
2023/06/28 10:25:01;;;;;;;;;19.25;19.25;;;;;29.76;34.87;100995.69;5056659;28;45371;-71
2023/06/28 10:27:27;;;;;;;;;26.75;26.00;;;;;29.82;35.30;100994.97;5057262;28;45367;-72
2023/06/28 10:29:54;;;;;;;;;40.25;35.25;;;;;30.02;34.72;100995.38;5056170;28;45460;-72
2023/06/28 10:32:19;;;;;;;;;18.25;18.25;;;;;30.06;34.68;100991.28;5038309;28;48114;-72
2023/06/28 10:34:47;;;;;;;;;22.25;22.25;;;;;30.13;34.24;100997.69;5056472;28;45298;-72
2023/06/28 10:37:12;;;;;;;;;27.00;24.75;;;;;30.14;34.10;100999.34;5056667;28;45224;-71
2023/06/28 10:39:38;;;;;;;;;33.50;31.00;;;;;30.15;34.37;100995.63;5056847;28;45324;-72
2023/06/28 10:42:05;;;;;;;;;18.25;18.25;;;;;30.21;34.00;101001.34;5056616;28;45931;-71
2023/06/28 10:44:30;;;;;;;;;18.50;18.50;;;;;30.10;34.12;100997.19;5039837;28;45355;-73
2023/06/28 10:47:12;;;;;;;;;16.75;16.75;;;;;30.07;33.78;100976.69;5058451;28;45464;-71
2023/06/28 10:49:41;;;;;;;;;17.50;17.50;;;;;30.29;33.90;100998.56;5056990;28;45560;-73
2023/06/28 10:52:16;;;;;;;;;19.00;19.00;;;;;30.26;33.76;100988.09;5055944;28;46411;-74
2023/06/28 10:54:41;;;;;;;;;20.25;20.25;;;;;30.17;33.81;100993.56;5056460;28;45394;-71
2023/06/28 10:57:11;;;;;;;;;20.50;19.50;;;;;30.19;34.14;100989.84;5038329;28;45403;-73
2023/06/28 10:59:40;;;;;;;;;28.00;27.75;;;;;30.20;33.72;100970.66;5038501;28;45254;-73
2023/06/28 11:02:05;;;;;;;;;21.50;21.50;;;;;30.27;33.61;100992.47;5056374;28;45290;-72
2023/06/28 11:04:31;;;;;;;;;21.50;21.50;;;;;30.33;33.67;100988.22;5057284;28;45303;-72
2023/06/28 11:07:03;;;;;;;;;20.75;20.75;;;;;30.37;33.88;100984.94;5057733;28;45695;-71
2023/06/28 11:09:28;;;;;;;;;21.50;21.50;;;;;30.56;33.59;100985.44;5058429;28;46128;-73
2023/06/28 11:11:58;;;;;;;;;21.50;20.00;;;;;30.73;33.55;100973.41;5039344;28;47372;-73
2023/06/28 11:14:27;;;;;;;;;16.50;16.50;;;;;30.81;33.52;100977.09;5038153;28;45417;-74
2023/06/28 11:17:03;;;;;;;;;18.75;18.75;;;;;31.10;33.33;100967.25;5037694;28;45418;-73